Terminal Aerodrome Forecast
Issued by NWS

Home | Current Version | Previous Version | Text Only | Print | Product List | Glossary Off
Versions: 1 2 3 4 5 6 7 8 9 10 11 12 13 14 15 16 17 18 19 20 21 22 23 24 25 26

000
FTUS43 KDDC 102320
TAFGCK
TAF
KGCK 102320Z 1100/1124 15010KT P6SM BKN250
     FM111700 36019G27KT P6SM BKN200
     FM112300 03011KT P6SM FEW150=

USA.gov is the U.S. government's official web portal to all federal, state and local government web resources and services.